sensor_id;sensor_type;location;lat;lon;timestamp;temperature;humidity
316;DHT22;14128;48.686;9.738;2023-06-22T00:02:22;18.60;1.00
316;DHT22;14128;48.686;9.738;2023-06-22T00:04:49;18.50;99.90
316;DHT22;14128;48.686;9.738;2023-06-22T00:07:16;18.60;99.90
316;DHT22;14128;48.686;9.738;2023-06-22T00:09:43;18.50;99.90
316;DHT22;14128;48.686;9.738;2023-06-22T00:12:09;18.50;99.90
316;DHT22;14128;48.686;9.738;2023-06-22T00:14:36;18.40;59.10
316;DHT22;14128;48.686;9.738;2023-06-22T00:17:03;18.40;99.90
316;DHT22;14128;48.686;9.738;2023-06-22T00:19:31;18.30;99.90
316;DHT22;14128;48.686;9.738;2023-06-22T00:22:00;18.20;11.20
316;DHT22;14128;48.686;9.738;2023-06-22T00:24:29;18.20;99.90
316;DHT22;14128;48.686;9.738;2023-06-22T00:26:55;18.20;1.00
316;DHT22;14128;48.686;9.738;2023-06-22T00:29:22;18.10;1.00
316;DHT22;14128;48.686;9.738;2023-06-22T00:31:49;18.00;99.90
316;DHT22;14128;48.686;9.738;2023-06-22T00:34:16;18.00;99.90
316;DHT22;14128;48.686;9.738;2023-06-22T00:36:44;17.90;99.90
316;DHT22;14128;48.686;9.738;2023-06-22T00:39:12;17.80;99.90
316;DHT22;14128;48.686;9.738;2023-06-22T00:41:39;17.70;99.90
316;DHT22;14128;48.686;9.738;2023-06-22T00:44:05;17.70;99.90
316;DHT22;14128;48.686;9.738;2023-06-22T00:46:34;17.70;1.00
316;DHT22;14128;48.686;9.738;2023-06-22T00:49:01;17.70;85.40
316;DHT22;14128;48.686;9.738;2023-06-22T00:51:31;17.60;99.90
316;DHT22;14128;48.686;9.738;2023-06-22T00:53:59;17.60;1.00
316;DHT22;14128;48.686;9.738;2023-06-22T00:56:26;17.60;1.00
316;DHT22;14128;48.686;9.738;2023-06-22T00:58:55;17.50;99.90
316;DHT22;14128;48.686;9.738;2023-06-22T01:01:23;17.50;99.90
316;DHT22;14128;48.686;9.738;2023-06-22T01:03:50;17.50;99.90
316;DHT22;14128;48.686;9.738;2023-06-22T01:06:25;17.40;99.90
316;DHT22;14128;48.686;9.738;2023-06-22T01:09:00;17.40;99.90
316;DHT22;14128;48.686;9.738;2023-06-22T01:11:34;17.40;99.90
316;DHT22;14128;48.686;9.738;2023-06-22T01:14:07;17.40;42.20
316;DHT22;14128;48.686;9.738;2023-06-22T01:16:39;17.40;14.00
316;DHT22;14128;48.686;9.738;2023-06-22T01:19:14;17.30;99.90
316;DHT22;14128;48.686;9.738;2023-06-22T01:21:44;17.30;1.00
316;DHT22;14128;48.686;9.738;2023-06-22T01:24:17;17.20;35.70
316;DHT22;14128;48.686;9.738;2023-06-22T01:26:57;17.20;1.00
316;DHT22;14128;48.686;9.738;2023-06-22T01:29:29;17.20;99.90
316;DHT22;14128;48.686;9.738;2023-06-22T01:31:58;17.20;99.90
316;DHT22;14128;48.686;9.738;2023-06-22T01:34:26;17.10;1.00
316;DHT22;14128;48.686;9.738;2023-06-22T01:36:54;17.10;99.90
316;DHT22;14128;48.686;9.738;2023-06-22T01:39:21;17.20;99.90
316;DHT22;14128;48.686;9.738;2023-06-22T01:41:48;17.30;99.90
316;DHT22;14128;48.686;9.738;2023-06-22T01:44:16;17.30;99.90
316;DHT22;14128;48.686;9.738;2023-06-22T01:46:45;17.30;99.90
316;DHT22;14128;48.686;9.738;2023-06-22T01:49:12;17.30;78.30
316;DHT22;14128;48.686;9.738;2023-06-22T01:51:39;17.30;40.10
316;DHT22;14128;48.686;9.738;2023-06-22T01:54:06;17.40;99.90
316;DHT22;14128;48.686;9.738;2023-06-22T01:56:33;17.40;19.10
316;DHT22;14128;48.686;9.738;2023-06-22T01:59:04;17.30;99.90
316;DHT22;14128;48.686;9.738;2023-06-22T02:01:36;17.30;75.60
316;DHT22;14128;48.686;9.738;2023-06-22T02:04:13;17.40;1.00
316;DHT22;14128;48.686;9.738;2023-06-22T02:06:42;17.30;99.90
316;DHT22;14128;48.686;9.738;2023-06-22T02:09:14;17.20;21.10
316;DHT22;14128;48.686;9.738;2023-06-22T02:11:44;17.10;1.00
316;DHT22;14128;48.686;9.738;2023-06-22T02:14:13;17.00;99.90
316;DHT22;14128;48.686;9.738;2023-06-22T02:16:41;16.90;1.00
316;DHT22;14128;48.686;9.738;2023-06-22T02:19:09;16.90;1.00
316;DHT22;14128;48.686;9.738;2023-06-22T02:21:37;16.80;26.60
316;DHT22;14128;48.686;9.738;2023-06-22T02:24:04;16.80;99.90
316;DHT22;14128;48.686;9.738;2023-06-22T02:26:31;16.80;99.90
316;DHT22;14128;48.686;9.738;2023-06-22T02:28:59;16.70;5.00
316;DHT22;14128;48.686;9.738;2023-06-22T02:31:26;16.60;91.50
316;DHT22;14128;48.686;9.738;2023-06-22T02:33:56;16.60;4.70
316;DHT22;14128;48.686;9.738;2023-06-22T02:36:24;16.60;99.90
316;DHT22;14128;48.686;9.738;2023-06-22T02:38:53;16.60;99.90
316;DHT22;14128;48.686;9.738;2023-06-22T02:41:21;16.60;99.90
316;DHT22;14128;48.686;9.738;2023-06-22T02:43:48;16.50;99.90
316;DHT22;14128;48.686;9.738;2023-06-22T02:46:15;16.50;1.00
316;DHT22;14128;48.686;9.738;2023-06-22T02:48:42;16.50;44.00
316;DHT22;14128;48.686;9.738;2023-06-22T02:51:09;16.50;99.90
316;DHT22;14128;48.686;9.738;2023-06-22T02:53:37;16.50;52.10
316;DHT22;14128;48.686;9.738;2023-06-22T02:56:04;16.40;1.00
316;DHT22;14128;48.686;9.738;2023-06-22T02:58:31;16.40;99.90
316;DHT22;14128;48.686;9.738;2023-06-22T03:01:04;16.40;99.90
316;DHT22;14128;48.686;9.738;2023-06-22T03:03:31;16.40;99.90
316;DHT22;14128;48.686;9.738;2023-06-22T03:05:57;16.40;99.90
316;DHT22;14128;48.686;9.738;2023-06-22T03:08:26;16.40;99.90
316;DHT22;14128;48.686;9.738;2023-06-22T03:10:54;16.40;99.90
316;DHT22;14128;48.686;9.738;2023-06-22T03:13:21;16.30;99.90
316;DHT22;14128;48.686;9.738;2023-06-22T03:15:48;16.40;99.90
316;DHT22;14128;48.686;9.738;2023-06-22T03:18:15;16.30;99.90
316;DHT22;14128;48.686;9.738;2023-06-22T03:20:42;16.20;99.90
316;DHT22;14128;48.686;9.738;2023-06-22T03:23:09;16.20;99.90
316;DHT22;14128;48.686;9.738;2023-06-22T03:25:35;16.20;99.90
316;DHT22;14128;48.686;9.738;2023-06-22T03:28:04;16.20;1.40
316;DHT22;14128;48.686;9.738;2023-06-22T03:30:31;16.20;1.40
316;DHT22;14128;48.686;9.738;2023-06-22T03:32:58;16.20;99.90
316;DHT22;14128;48.686;9.738;2023-06-22T03:35:24;16.20;99.90
316;DHT22;14128;48.686;9.738;2023-06-22T03:37:51;16.20;99.90
316;DHT22;14128;48.686;9.738;2023-06-22T03:40:18;16.30;1.40
316;DHT22;14128;48.686;9.738;2023-06-22T03:42:46;16.30;1.40
316;DHT22;14128;48.686;9.738;2023-06-22T03:45:14;16.40;1.40
316;DHT22;14128;48.686;9.738;2023-06-22T03:47:41;16.40;99.90
316;DHT22;14128;48.686;9.738;2023-06-22T03:50:08;16.50;99.90
316;DHT22;14128;48.686;9.738;2023-06-22T03:52:35;16.50;1.40
316;DHT22;14128;48.686;9.738;2023-06-22T03:55:02;16.50;99.90
316;DHT22;14128;48.686;9.738;2023-06-22T03:57:29;16.50;1.40
316;DHT22;14128;48.686;9.738;2023-06-22T03:59:57;16.50;1.40
316;DHT22;14128;48.686;9.738;2023-06-22T04:02:25;16.50;99.90
316;DHT22;14128;48.686;9.738;2023-06-22T04:04:52;16.50;99.90
316;DHT22;14128;48.686;9.738;2023-06-22T04:07:19;16.60;99.90
316;DHT22;14128;48.686;9.738;2023-06-22T04:09:46;16.80;1.40
316;DHT22;14128;48.686;9.738;2023-06-22T04:12:13;16.70;99.90
316;DHT22;14128;48.686;9.738;2023-06-22T04:14:40;16.80;99.90
316;DHT22;14128;48.686;9.738;2023-06-22T04:17:07;16.80;99.90
316;DHT22;14128;48.686;9.738;2023-06-22T04:19:35;16.90;99.90
316;DHT22;14128;48.686;9.738;2023-06-22T04:22:02;17.00;1.40
316;DHT22;14128;48.686;9.738;2023-06-22T04:24:29;17.10;99.90
316;DHT22;14128;48.686;9.738;2023-06-22T04:26:55;17.10;1.40
316;DHT22;14128;48.686;9.738;2023-06-22T04:29:22;17.20;1.40
316;DHT22;14128;48.686;9.738;2023-06-22T04:31:54;17.30;1.40
316;DHT22;14128;48.686;9.738;2023-06-22T04:34:23;17.40;99.90
316;DHT22;14128;48.686;9.738;2023-06-22T04:36:53;17.50;99.90
316;DHT22;14128;48.686;9.738;2023-06-22T04:39:20;17.70;99.90
316;DHT22;14128;48.686;9.738;2023-06-22T04:41:47;17.80;1.40
316;DHT22;14128;48.686;9.738;2023-06-22T04:44:15;17.90;1.40
316;DHT22;14128;48.686;9.738;2023-06-22T04:46:49;18.10;99.90
316;DHT22;14128;48.686;9.738;2023-06-22T04:49:20;18.20;99.90
316;DHT22;14128;48.686;9.738;2023-06-22T04:51:47;18.30;99.90
316;DHT22;14128;48.686;9.738;2023-06-22T04:54:18;18.40;1.40
316;DHT22;14128;48.686;9.738;2023-06-22T04:56:45;18.50;1.40
316;DHT22;14128;48.686;9.738;2023-06-22T04:59:12;18.60;1.40
316;DHT22;14128;48.686;9.738;2023-06-22T05:01:39;18.70;1.40
316;DHT22;14128;48.686;9.738;2023-06-22T05:04:06;18.80;1.40
316;DHT22;14128;48.686;9.738;2023-06-22T05:06:33;19.00;99.90
316;DHT22;14128;48.686;9.738;2023-06-22T05:09:00;19.10;99.90
316;DHT22;14128;48.686;9.738;2023-06-22T05:11:28;19.30;99.90
316;DHT22;14128;48.686;9.738;2023-06-22T05:13:55;19.50;99.90
316;DHT22;14128;48.686;9.738;2023-06-22T05:16:22;19.60;99.90
316;DHT22;14128;48.686;9.738;2023-06-22T05:18:54;19.80;1.40
316;DHT22;14128;48.686;9.738;2023-06-22T05:21:25;20.00;1.40
316;DHT22;14128;48.686;9.738;2023-06-22T05:23:52;20.20;1.40
316;DHT22;14128;48.686;9.738;2023-06-22T05:26:20;20.40;99.90
316;DHT22;14128;48.686;9.738;2023-06-22T05:28:48;20.60;1.40
316;DHT22;14128;48.686;9.738;2023-06-22T05:31:16;20.80;99.90
316;DHT22;14128;48.686;9.738;2023-06-22T05:33:45;20.90;1.40
316;DHT22;14128;48.686;9.738;2023-06-22T05:36:13;21.00;1.40
316;DHT22;14128;48.686;9.738;2023-06-22T05:38:40;21.00;1.40
316;DHT22;14128;48.686;9.738;2023-06-22T05:41:07;21.20;1.40
316;DHT22;14128;48.686;9.738;2023-06-22T05:43:34;21.20;1.40
316;DHT22;14128;48.686;9.738;2023-06-22T05:46:04;21.40;1.40
316;DHT22;14128;48.686;9.738;2023-06-22T05:48:31;21.50;1.40
316;DHT22;14128;48.686;9.738;2023-06-22T05:50:58;21.50;99.90
316;DHT22;14128;48.686;9.738;2023-06-22T05:53:25;21.70;1.40
316;DHT22;14128;48.686;9.738;2023-06-22T05:55:51;21.80;1.40
316;DHT22;14128;48.686;9.738;2023-06-22T05:58:18;22.00;1.40
316;DHT22;14128;48.686;9.738;2023-06-22T06:00:45;22.10;1.40
316;DHT22;14128;48.686;9.738;2023-06-22T06:03:14;22.20;1.40
316;DHT22;14128;48.686;9.738;2023-06-22T06:05:43;22.30;1.40
316;DHT22;14128;48.686;9.738;2023-06-22T06:08:10;22.40;1.40
316;DHT22;14128;48.686;9.738;2023-06-22T06:10:37;22.60;99.90
316;DHT22;14128;48.686;9.738;2023-06-22T06:13:04;22.70;1.40
316;DHT22;14128;48.686;9.738;2023-06-22T06:15:31;22.80;1.40
316;DHT22;14128;48.686;9.738;2023-06-22T06:17:58;23.00;1.40
316;DHT22;14128;48.686;9.738;2023-06-22T06:20:27;23.10;1.40
316;DHT22;14128;48.686;9.738;2023-06-22T06:22:54;23.20;1.40
316;DHT22;14128;48.686;9.738;2023-06-22T06:25:21;23.30;1.40
316;DHT22;14128;48.686;9.738;2023-06-22T06:27:50;23.40;1.40
316;DHT22;14128;48.686;9.738;2023-06-22T06:30:20;23.50;1.40
316;DHT22;14128;48.686;9.738;2023-06-22T06:32:48;23.60;1.40
316;DHT22;14128;48.686;9.738;2023-06-22T06:35:15;23.60;1.40
316;DHT22;14128;48.686;9.738;2023-06-22T06:37:45;23.70;1.40
316;DHT22;14128;48.686;9.738;2023-06-22T06:40:13;23.90;1.40
316;DHT22;14128;48.686;9.738;2023-06-22T06:42:41;24.00;1.40
316;DHT22;14128;48.686;9.738;2023-06-22T06:45:10;24.10;1.40
316;DHT22;14128;48.686;9.738;2023-06-22T06:47:38;24.20;1.40
316;DHT22;14128;48.686;9.738;2023-06-22T06:50:06;24.30;1.40
316;DHT22;14128;48.686;9.738;2023-06-22T06:52:33;24.40;1.40
316;DHT22;14128;48.686;9.738;2023-06-22T06:55:01;24.50;1.40
316;DHT22;14128;48.686;9.738;2023-06-22T06:57:30;24.50;1.40
316;DHT22;14128;48.686;9.738;2023-06-22T06:59:59;24.70;1.40
316;DHT22;14128;48.686;9.738;2023-06-22T07:02:27;24.70;1.40
316;DHT22;14128;48.686;9.738;2023-06-22T07:04:54;24.80;1.40
316;DHT22;14128;48.686;9.738;2023-06-22T07:07:21;24.80;1.40
316;DHT22;14128;48.686;9.738;2023-06-22T07:09:48;24.90;1.40
316;DHT22;14128;48.686;9.738;2023-06-22T07:12:16;25.00;1.40
316;DHT22;14128;48.686;9.738;2023-06-22T07:14:43;25.10;1.40
316;DHT22;14128;48.686;9.738;2023-06-22T07:17:10;25.20;1.40
316;DHT22;14128;48.686;9.738;2023-06-22T07:19:37;25.30;1.40
316;DHT22;14128;48.686;9.738;2023-06-22T07:22:04;25.40;1.40
316;DHT22;14128;48.686;9.738;2023-06-22T07:24:31;25.50;1.40
316;DHT22;14128;48.686;9.738;2023-06-22T07:26:59;25.60;1.40
316;DHT22;14128;48.686;9.738;2023-06-22T07:29:27;25.70;1.40
316;DHT22;14128;48.686;9.738;2023-06-22T07:31:54;25.80;1.40
316;DHT22;14128;48.686;9.738;2023-06-22T07:34:22;25.80;1.40
316;DHT22;14128;48.686;9.738;2023-06-22T07:36:49;26.00;1.40
316;DHT22;14128;48.686;9.738;2023-06-22T07:39:15;26.10;99.90
316;DHT22;14128;48.686;9.738;2023-06-22T07:41:42;26.10;1.40
316;DHT22;14128;48.686;9.738;2023-06-22T07:44:09;26.20;1.40
316;DHT22;14128;48.686;9.738;2023-06-22T07:46:37;26.40;1.40
316;DHT22;14128;48.686;9.738;2023-06-22T07:49:04;26.50;1.40
316;DHT22;14128;48.686;9.738;2023-06-22T07:51:31;26.60;1.40
316;DHT22;14128;48.686;9.738;2023-06-22T07:53:58;26.70;1.40
316;DHT22;14128;48.686;9.738;2023-06-22T07:56:24;26.80;1.40
316;DHT22;14128;48.686;9.738;2023-06-22T07:58:51;26.90;1.40
316;DHT22;14128;48.686;9.738;2023-06-22T08:01:18;27.00;1.40
316;DHT22;14128;48.686;9.738;2023-06-22T08:03:48;27.10;1.40
316;DHT22;14128;48.686;9.738;2023-06-22T08:06:14;27.30;1.40
316;DHT22;14128;48.686;9.738;2023-06-22T08:08:41;27.30;1.40
316;DHT22;14128;48.686;9.738;2023-06-22T08:11:09;27.50;1.40
316;DHT22;14128;48.686;9.738;2023-06-22T08:13:36;27.50;99.90
316;DHT22;14128;48.686;9.738;2023-06-22T08:16:03;27.70;1.00
316;DHT22;14128;48.686;9.738;2023-06-22T08:18:30;27.70;99.90
316;DHT22;14128;48.686;9.738;2023-06-22T08:20:58;27.90;99.90
316;DHT22;14128;48.686;9.738;2023-06-22T08:23:25;28.00;99.90
316;DHT22;14128;48.686;9.738;2023-06-22T08:25:52;28.20;99.90
316;DHT22;14128;48.686;9.738;2023-06-22T08:28:18;28.30;99.90
316;DHT22;14128;48.686;9.738;2023-06-22T08:30:45;28.40;1.00
316;DHT22;14128;48.686;9.738;2023-06-22T08:33:12;28.50;91.00
316;DHT22;14128;48.686;9.738;2023-06-22T08:35:39;28.60;99.90
316;DHT22;14128;48.686;9.738;2023-06-22T08:38:07;28.70;99.90
316;DHT22;14128;48.686;9.738;2023-06-22T08:40:34;28.80;99.90
316;DHT22;14128;48.686;9.738;2023-06-22T08:43:01;28.90;99.90
316;DHT22;14128;48.686;9.738;2023-06-22T08:45:28;29.10;99.90
316;DHT22;14128;48.686;9.738;2023-06-22T08:47:54;29.20;99.90
316;DHT22;14128;48.686;9.738;2023-06-22T08:50:21;29.30;99.90
316;DHT22;14128;48.686;9.738;2023-06-22T08:52:48;29.30;99.90
316;DHT22;14128;48.686;9.738;2023-06-22T08:55:17;29.40;99.90
316;DHT22;14128;48.686;9.738;2023-06-22T08:57:44;29.50;99.90
316;DHT22;14128;48.686;9.738;2023-06-22T09:00:11;29.40;99.90
316;DHT22;14128;48.686;9.738;2023-06-22T09:02:43;29.40;99.90
316;DHT22;14128;48.686;9.738;2023-06-22T09:05:09;29.50;99.90
316;DHT22;14128;48.686;9.738;2023-06-22T09:07:36;29.50;99.90
316;DHT22;14128;48.686;9.738;2023-06-22T09:10:04;29.50;99.90
316;DHT22;14128;48.686;9.738;2023-06-22T09:12:33;29.70;99.90
316;DHT22;14128;48.686;9.738;2023-06-22T09:15:00;29.90;99.90
316;DHT22;14128;48.686;9.738;2023-06-22T09:17:28;29.90;99.90
316;DHT22;14128;48.686;9.738;2023-06-22T09:19:55;29.90;99.90
316;DHT22;14128;48.686;9.738;2023-06-22T09:22:22;29.70;99.90
316;DHT22;14128;48.686;9.738;2023-06-22T09:24:49;29.80;56.50
316;DHT22;14128;48.686;9.738;2023-06-22T09:27:15;29.80;1.00
316;DHT22;14128;48.686;9.738;2023-06-22T09:29:44;29.90;99.90
316;DHT22;14128;48.686;9.738;2023-06-22T09:32:10;29.90;99.90
316;DHT22;14128;48.686;9.738;2023-06-22T09:34:37;29.80;1.00
316;DHT22;14128;48.686;9.738;2023-06-22T09:37:05;29.90;1.00
316;DHT22;14128;48.686;9.738;2023-06-22T09:39:31;29.90;99.90
316;DHT22;14128;48.686;9.738;2023-06-22T09:41:59;29.80;1.00
316;DHT22;14128;48.686;9.738;2023-06-22T09:44:26;29.80;99.90
316;DHT22;14128;48.686;9.738;2023-06-22T09:46:54;29.70;1.00
316;DHT22;14128;48.686;9.738;2023-06-22T09:49:21;29.70;99.90
316;DHT22;14128;48.686;9.738;2023-06-22T09:51:48;29.90;1.00
316;DHT22;14128;48.686;9.738;2023-06-22T09:54:15;30.00;1.00
316;DHT22;14128;48.686;9.738;2023-06-22T09:56:42;30.10;19.80
316;DHT22;14128;48.686;9.738;2023-06-22T09:59:08;30.30;1.00
316;DHT22;14128;48.686;9.738;2023-06-22T10:01:35;30.50;1.00
316;DHT22;14128;48.686;9.738;2023-06-22T10:04:04;30.70;87.80
316;DHT22;14128;48.686;9.738;2023-06-22T10:06:30;30.80;1.00
316;DHT22;14128;48.686;9.738;2023-06-22T10:08:57;30.70;1.00
316;DHT22;14128;48.686;9.738;2023-06-22T10:11:24;30.90;1.00
316;DHT22;14128;48.686;9.738;2023-06-22T10:13:54;31.20;1.00
316;DHT22;14128;48.686;9.738;2023-06-22T10:16:23;31.40;99.90
316;DHT22;14128;48.686;9.738;2023-06-22T10:18:52;31.60;1.00
316;DHT22;14128;48.686;9.738;2023-06-22T10:21:20;31.90;1.00
316;DHT22;14128;48.686;9.738;2023-06-22T10:23:47;32.30;1.00
316;DHT22;14128;48.686;9.738;2023-06-22T10:26:14;32.60;1.00
316;DHT22;14128;48.686;9.738;2023-06-22T10:28:40;32.90;1.00
316;DHT22;14128;48.686;9.738;2023-06-22T10:31:07;33.40;1.00
316;DHT22;14128;48.686;9.738;2023-06-22T10:33:34;34.10;99.90
316;DHT22;14128;48.686;9.738;2023-06-22T10:36:01;34.80;99.90
316;DHT22;14128;48.686;9.738;2023-06-22T10:38:29;35.20;1.00
316;DHT22;14128;48.686;9.738;2023-06-22T10:40:56;35.30;1.00
316;DHT22;14128;48.686;9.738;2023-06-22T10:43:23;35.50;1.00
316;DHT22;14128;48.686;9.738;2023-06-22T10:45:49;35.20;1.00
316;DHT22;14128;48.686;9.738;2023-06-22T10:48:16;34.90;99.90
316;DHT22;14128;48.686;9.738;2023-06-22T10:50:43;34.20;99.90
316;DHT22;14128;48.686;9.738;2023-06-22T10:53:10;33.90;99.90
316;DHT22;14128;48.686;9.738;2023-06-22T10:55:38;34.00;1.00
316;DHT22;14128;48.686;9.738;2023-06-22T10:58:05;34.10;1.00
316;DHT22;14128;48.686;9.738;2023-06-22T11:00:31;34.10;1.00
316;DHT22;14128;48.686;9.738;2023-06-22T11:02:58;34.10;1.00
316;DHT22;14128;48.686;9.738;2023-06-22T11:05:25;34.30;1.00
316;DHT22;14128;48.686;9.738;2023-06-22T11:07:52;34.60;1.00
316;DHT22;14128;48.686;9.738;2023-06-22T11:10:19;35.10;1.00
316;DHT22;14128;48.686;9.738;2023-06-22T11:12:47;35.50;1.00
316;DHT22;14128;48.686;9.738;2023-06-22T11:15:14;35.80;1.00
316;DHT22;14128;48.686;9.738;2023-06-22T11:17:40;36.20;1.00
316;DHT22;14128;48.686;9.738;2023-06-22T11:20:08;36.60;1.00
316;DHT22;14128;48.686;9.738;2023-06-22T11:22:36;37.10;1.00
316;DHT22;14128;48.686;9.738;2023-06-22T11:25:05;37.10;1.00
316;DHT22;14128;48.686;9.738;2023-06-22T11:27:32;37.50;1.00
316;DHT22;14128;48.686;9.738;2023-06-22T11:30:00;37.60;99.90
316;DHT22;14128;48.686;9.738;2023-06-22T11:32:27;37.80;1.00
316;DHT22;14128;48.686;9.738;2023-06-22T11:34:54;37.70;1.00
316;DHT22;14128;48.686;9.738;2023-06-22T11:37:21;37.70;1.00
316;DHT22;14128;48.686;9.738;2023-06-22T11:39:47;37.70;1.00
316;DHT22;14128;48.686;9.738;2023-06-22T11:42:14;37.70;1.00
316;DHT22;14128;48.686;9.738;2023-06-22T11:44:42;37.50;1.00
316;DHT22;14128;48.686;9.738;2023-06-22T11:47:10;37.90;1.00
316;DHT22;14128;48.686;9.738;2023-06-22T11:49:37;38.20;1.00
316;DHT22;14128;48.686;9.738;2023-06-22T11:52:04;38.60;1.00
316;DHT22;14128;48.686;9.738;2023-06-22T11:54:31;38.90;1.00
316;DHT22;14128;48.686;9.738;2023-06-22T11:56:59;38.90;1.00
316;DHT22;14128;48.686;9.738;2023-06-22T11:59:25;38.40;1.00
316;DHT22;14128;48.686;9.738;2023-06-22T12:01:52;38.10;99.90
316;DHT22;14128;48.686;9.738;2023-06-22T12:04:20;37.80;1.00
316;DHT22;14128;48.686;9.738;2023-06-22T12:06:47;37.60;99.90
316;DHT22;14128;48.686;9.738;2023-06-22T12:09:14;37.40;99.90
316;DHT22;14128;48.686;9.738;2023-06-22T12:11:41;37.20;1.00
316;DHT22;14128;48.686;9.738;2023-06-22T12:14:08;36.70;1.00
316;DHT22;14128;48.686;9.738;2023-06-22T12:16:34;36.80;1.00
316;DHT22;14128;48.686;9.738;2023-06-22T12:19:01;36.80;1.00
316;DHT22;14128;48.686;9.738;2023-06-22T12:21:29;37.00;1.00
316;DHT22;14128;48.686;9.738;2023-06-22T12:23:56;37.50;99.90
316;DHT22;14128;48.686;9.738;2023-06-22T12:26:23;38.40;1.00
316;DHT22;14128;48.686;9.738;2023-06-22T12:28:50;39.20;99.90
316;DHT22;14128;48.686;9.738;2023-06-22T12:31:17;39.40;1.00
316;DHT22;14128;48.686;9.738;2023-06-22T12:33:44;40.10;1.00
316;DHT22;14128;48.686;9.738;2023-06-22T12:36:11;40.30;1.00
316;DHT22;14128;48.686;9.738;2023-06-22T12:38:39;40.60;1.00
316;DHT22;14128;48.686;9.738;2023-06-22T12:41:06;40.40;1.00
316;DHT22;14128;48.686;9.738;2023-06-22T12:43:32;40.10;99.90
316;DHT22;14128;48.686;9.738;2023-06-22T12:45:59;39.90;1.00
316;DHT22;14128;48.686;9.738;2023-06-22T12:48:27;39.60;99.90
316;DHT22;14128;48.686;9.738;2023-06-22T12:50:54;39.00;1.00
316;DHT22;14128;48.686;9.738;2023-06-22T12:53:21;38.30;99.90
316;DHT22;14128;48.686;9.738;2023-06-22T12:55:50;37.80;1.00
316;DHT22;14128;48.686;9.738;2023-06-22T12:58:17;37.50;1.00
316;DHT22;14128;48.686;9.738;2023-06-22T13:00:44;37.10;1.00
316;DHT22;14128;48.686;9.738;2023-06-22T13:03:11;36.80;1.00
316;DHT22;14128;48.686;9.738;2023-06-22T13:05:37;36.40;75.10
316;DHT22;14128;48.686;9.738;2023-06-22T13:08:04;36.10;1.00
316;DHT22;14128;48.686;9.738;2023-06-22T13:10:31;35.70;1.00
316;DHT22;14128;48.686;9.738;2023-06-22T13:12:59;35.60;1.00
316;DHT22;14128;48.686;9.738;2023-06-22T13:15:27;35.10;1.00
316;DHT22;14128;48.686;9.738;2023-06-22T13:17:54;35.00;1.00
316;DHT22;14128;48.686;9.738;2023-06-22T13:20:21;34.90;1.00
316;DHT22;14128;48.686;9.738;2023-06-22T13:22:48;35.10;1.00
316;DHT22;14128;48.686;9.738;2023-06-22T13:25:15;35.50;99.90
316;DHT22;14128;48.686;9.738;2023-06-22T13:27:44;35.40;1.00
316;DHT22;14128;48.686;9.738;2023-06-22T13:30:13;35.00;1.00
316;DHT22;14128;48.686;9.738;2023-06-22T13:32:41;34.90;99.90
316;DHT22;14128;48.686;9.738;2023-06-22T13:35:08;35.00;1.00
316;DHT22;14128;48.686;9.738;2023-06-22T13:37:36;34.60;1.00
316;DHT22;14128;48.686;9.738;2023-06-22T13:40:03;34.40;99.90
316;DHT22;14128;48.686;9.738;2023-06-22T13:42:32;33.90;1.00
316;DHT22;14128;48.686;9.738;2023-06-22T13:44:59;34.00;1.00
316;DHT22;14128;48.686;9.738;2023-06-22T13:47:27;34.60;1.00
316;DHT22;14128;48.686;9.738;2023-06-22T13:49:54;34.90;99.90
316;DHT22;14128;48.686;9.738;2023-06-22T13:52:21;35.40;1.00
316;DHT22;14128;48.686;9.738;2023-06-22T13:54:47;35.40;1.00
316;DHT22;14128;48.686;9.738;2023-06-22T13:57:14;35.30;99.90
316;DHT22;14128;48.686;9.738;2023-06-22T13:59:41;35.50;1.00
316;DHT22;14128;48.686;9.738;2023-06-22T14:02:08;36.40;1.00
316;DHT22;14128;48.686;9.738;2023-06-22T14:04:36;35.60;1.00
316;DHT22;14128;48.686;9.738;2023-06-22T14:07:03;35.20;1.00
316;DHT22;14128;48.686;9.738;2023-06-22T14:09:30;34.80;1.00
316;DHT22;14128;48.686;9.738;2023-06-22T14:11:57;34.50;99.90
316;DHT22;14128;48.686;9.738;2023-06-22T14:14:24;34.40;1.00
316;DHT22;14128;48.686;9.738;2023-06-22T14:16:52;34.30;1.00
316;DHT22;14128;48.686;9.738;2023-06-22T14:19:19;34.50;1.00
316;DHT22;14128;48.686;9.738;2023-06-22T14:21:47;34.80;1.00
316;DHT22;14128;48.686;9.738;2023-06-22T14:24:14;35.30;1.10
316;DHT22;14128;48.686;9.738;2023-06-22T14:26:40;35.50;1.00
316;DHT22;14128;48.686;9.738;2023-06-22T14:29:07;36.10;1.00
316;DHT22;14128;48.686;9.738;2023-06-22T14:31:34;37.00;1.00
316;DHT22;14128;48.686;9.738;2023-06-22T14:34:01;38.10;1.00
316;DHT22;14128;48.686;9.738;2023-06-22T14:36:29;38.90;1.00
316;DHT22;14128;48.686;9.738;2023-06-22T14:38:57;38.90;1.00
316;DHT22;14128;48.686;9.738;2023-06-22T14:41:24;38.30;1.00
316;DHT22;14128;48.686;9.738;2023-06-22T14:43:50;38.00;1.00
316;DHT22;14128;48.686;9.738;2023-06-22T14:46:18;37.60;1.00
316;DHT22;14128;48.686;9.738;2023-06-22T14:48:45;37.30;1.00
316;DHT22;14128;48.686;9.738;2023-06-22T14:51:12;37.70;1.00
316;DHT22;14128;48.686;9.738;2023-06-22T14:53:39;38.40;1.00
316;DHT22;14128;48.686;9.738;2023-06-22T14:56:08;38.20;1.00
316;DHT22;14128;48.686;9.738;2023-06-22T14:58:35;38.10;1.00
316;DHT22;14128;48.686;9.738;2023-06-22T15:01:02;40.70;1.00
316;DHT22;14128;48.686;9.738;2023-06-22T15:03:30;45.10;11.60
316;DHT22;14128;48.686;9.738;2023-06-22T15:05:58;46.90;33.00
316;DHT22;14128;48.686;9.738;2023-06-22T15:08:25;46.00;37.20
316;DHT22;14128;48.686;9.738;2023-06-22T15:10:52;43.70;27.50
316;DHT22;14128;48.686;9.738;2023-06-22T15:13:21;43.80;17.80
316;DHT22;14128;48.686;9.738;2023-06-22T15:15:50;43.50;16.60
316;DHT22;14128;48.686;9.738;2023-06-22T15:18:17;42.70;10.90
316;DHT22;14128;48.686;9.738;2023-06-22T15:20:44;40.50;1.00
316;DHT22;14128;48.686;9.738;2023-06-22T15:23:11;39.70;1.00
316;DHT22;14128;48.686;9.738;2023-06-22T15:25:38;40.20;1.00
316;DHT22;14128;48.686;9.738;2023-06-22T15:28:05;41.50;1.00
316;DHT22;14128;48.686;9.738;2023-06-22T15:30:33;43.60;14.20
316;DHT22;14128;48.686;9.738;2023-06-22T15:33:01;44.10;25.10
316;DHT22;14128;48.686;9.738;2023-06-22T15:35:28;43.80;28.00
316;DHT22;14128;48.686;9.738;2023-06-22T15:37:55;44.50;33.70
316;DHT22;14128;48.686;9.738;2023-06-22T15:40:22;45.00;37.20
316;DHT22;14128;48.686;9.738;2023-06-22T15:42:50;45.30;25.30
316;DHT22;14128;48.686;9.738;2023-06-22T15:45:17;46.20;26.50
316;DHT22;14128;48.686;9.738;2023-06-22T15:47:45;48.40;51.80
316;DHT22;14128;48.686;9.738;2023-06-22T15:50:12;46.30;54.50
316;DHT22;14128;48.686;9.738;2023-06-22T15:52:39;45.70;29.80
316;DHT22;14128;48.686;9.738;2023-06-22T15:55:07;44.00;38.30
316;DHT22;14128;48.686;9.738;2023-06-22T15:57:35;45.20;31.10
316;DHT22;14128;48.686;9.738;2023-06-22T16:00:02;45.20;25.50
316;DHT22;14128;48.686;9.738;2023-06-22T16:02:30;46.40;13.30
316;DHT22;14128;48.686;9.738;2023-06-22T16:04:59;45.30;37.30
316;DHT22;14128;48.686;9.738;2023-06-22T16:07:26;44.30;7.10
316;DHT22;14128;48.686;9.738;2023-06-22T16:09:53;44.10;16.20
316;DHT22;14128;48.686;9.738;2023-06-22T16:12:20;42.50;21.20